createdAt,value
2022-07-30T00:05:39.435Z,2.88
2022-07-30T00:15:42.649Z,2.30
2022-07-30T00:25:47.053Z,3.00
2022-07-30T00:35:50.067Z,2.80
2022-07-30T00:45:54.538Z,2.65
2022-07-30T00:55:57.680Z,2.80
2022-07-30T01:06:02.480Z,2.65
2022-07-30T01:16:06.141Z,2.95
2022-07-30T01:26:13.090Z,2.80
2022-07-30T01:36:18.161Z,2.85
2022-07-30T01:46:25.894Z,2.70
2022-07-30T01:56:31.406Z,2.70
2022-07-30T02:06:43.341Z,2.70
2022-07-30T02:16:51.337Z,2.90
2022-07-30T02:27:01.954Z,3.03
2022-07-30T02:37:06.928Z,2.67
2022-07-30T02:47:13.652Z,3.00
2022-07-30T02:57:18.992Z,3.05
2022-07-30T03:07:24.179Z,3.10
2022-07-30T03:17:30.036Z,3.25
2022-07-30T03:27:35.775Z,2.97
2022-07-30T03:37:40.410Z,3.67
2022-07-30T03:47:45.571Z,3.80
2022-07-30T03:57:48.902Z,3.40
2022-07-30T04:07:53.349Z,3.28
2022-07-30T04:18:02.554Z,3.58
2022-07-30T04:28:07.635Z,3.20
2022-07-30T04:38:10.971Z,3.50
2022-07-30T04:48:15.393Z,3.60
2022-07-30T04:58:21.849Z,3.30
2022-07-30T05:08:26.793Z,3.72
2022-07-30T05:18:29.823Z,3.28
2022-07-30T05:28:34.250Z,3.08
2022-07-30T05:38:37.809Z,3.40
2022-07-30T05:48:42.231Z,2.90
2022-07-30T05:58:45.421Z,2.90
2022-07-30T06:08:50.192Z,2.65
2022-07-30T06:18:53.290Z,2.67
2022-07-30T06:28:57.817Z,2.60
2022-07-30T06:39:00.953Z,2.83
2022-07-30T06:49:05.629Z,2.40
2022-07-30T06:59:08.703Z,2.17
2022-07-30T07:09:13.108Z,1.60
2022-07-30T07:20:01.770Z,1.63
2022-07-30T07:29:40.567Z,1.80
2022-07-30T07:40:03.621Z,2.22
2022-07-30T07:50:09.059Z,2.10
2022-07-30T08:00:14.697Z,2.45
2022-07-30T08:10:19.276Z,2.33
2022-07-30T08:20:24.931Z,2.17
2022-07-30T08:30:29.634Z,2.17
2022-07-30T08:40:35.629Z,2.33
2022-07-30T08:50:41.055Z,2.30
2022-07-30T09:00:44.161Z,2.22
2022-07-30T09:10:53.011Z,2.58
2022-07-30T09:20:57.041Z,2.30
2022-07-30T09:31:01.821Z,1.90
2022-07-30T09:41:17.191Z,2.00
2022-07-30T09:51:54.500Z,1.80
2022-07-30T10:02:04.036Z,1.33
2022-07-30T10:12:11.331Z,1.30
2022-07-30T10:22:17.049Z,1.40
2022-07-30T10:32:30.513Z,1.50
2022-07-30T10:43:00.979Z,1.45
2022-07-30T10:53:05.530Z,1.50
2022-07-30T11:03:20.727Z,1.27
2022-07-30T11:13:54.673Z,1.25
2022-07-30T11:23:58.184Z,1.20
2022-07-30T11:34:29.787Z,1.25
2022-07-30T11:44:33.957Z,1.33
2022-07-30T12:05:07.179Z,1.50
2022-07-30T12:15:11.829Z,1.33
2022-07-30T12:25:16.645Z,1.10
2022-07-30T12:35:19.676Z,1.40
2022-07-30T12:45:51.618Z,1.30
2022-07-30T12:55:55.024Z,1.20
2022-07-30T13:06:00.417Z,1.40
2022-07-30T13:16:06.024Z,1.30
2022-07-30T13:26:12.245Z,1.40
2022-07-30T13:36:15.388Z,1.30
2022-07-30T13:46:20.206Z,1.58
2022-07-30T13:56:23.294Z,1.52
2022-07-30T14:06:27.763Z,1.40
2022-07-30T14:16:46.157Z,1.58
2022-07-30T14:26:56.001Z,1.42
2022-07-30T14:37:01.208Z,1.30
2022-07-30T14:47:06.335Z,1.20
2022-07-30T14:57:10.068Z,1.30
2022-07-30T15:07:14.561Z,1.77
2022-07-30T15:17:17.652Z,1.60
2022-07-30T15:27:31.816Z,1.90
2022-07-30T15:37:36.847Z,1.40
2022-07-30T15:47:41.257Z,1.50
2022-07-30T15:57:44.393Z,1.70
2022-07-30T16:07:48.782Z,1.42
2022-07-30T16:17:51.842Z,1.48
2022-07-30T16:27:57.668Z,1.88
2022-07-30T16:38:02.838Z,1.75
2022-07-30T16:48:07.760Z,1.63
2022-07-30T16:58:11.340Z,2.42
2022-07-30T17:08:17.785Z,1.80
2022-07-30T17:18:21.040Z,1.75
2022-07-30T17:28:27.252Z,1.60
2022-07-30T17:38:30.419Z,1.60
2022-07-30T17:48:34.826Z,3.70
2022-07-30T17:58:38.177Z,1.67
2022-07-30T18:08:42.640Z,2.08
2022-07-30T18:18:45.698Z,2.38
2022-07-30T18:28:51.570Z,2.60
2022-07-30T18:38:54.666Z,2.58
2022-07-30T18:49:10.840Z,2.50
2022-07-30T18:59:22.944Z,3.03
2022-07-30T19:09:27.475Z,3.05
2022-07-30T19:19:30.716Z,2.80
2022-07-30T19:29:35.645Z,3.10
2022-07-30T19:39:38.672Z,2.90
2022-07-30T19:50:03.068Z,3.83
2022-07-30T20:00:07.002Z,3.13
2022-07-30T20:10:12.602Z,3.30
2022-07-30T20:20:16.195Z,6.80
2022-07-30T20:30:25.424Z,6.18
2022-07-30T20:40:28.732Z,3.83
2022-07-30T20:50:33.525Z,2.70
2022-07-30T21:00:37.718Z,3.03
2022-07-30T21:10:44.582Z,2.65
2022-07-30T21:20:47.846Z,2.72
2022-07-30T21:30:52.231Z,2.65
2022-07-30T21:40:55.284Z,3.20
2022-07-30T21:51:00.705Z,3.00
2022-07-30T22:01:17.844Z,3.35
2022-07-30T22:11:23.127Z,3.10
2022-07-30T22:21:26.194Z,2.70
2022-07-30T22:31:30.813Z,2.58
2022-07-30T22:41:42.331Z,2.50
2022-07-30T22:52:01.806Z,2.60
2022-07-30T23:02:12.322Z,2.90
2022-07-30T23:12:17.818Z,2.45
2022-07-30T23:22:22.735Z,2.42
2022-07-30T23:32:27.178Z,2.40
2022-07-30T23:42:30.271Z,2.75
2022-07-30T23:52:34.720Z,2.60
